Terminal Aerodrome Forecast
Issued by NWS

Home | Current Version | Previous Version | Text Only | Print | Product List | Glossary On
Versions: 1 2 3 4 5 6 7 8 9 10 11 12 13 14 15 16
000
FTUS41 KPBZ 280737 AAA
TAFDUJ
TAF AMD
KDUJ 280737Z 2808/2906 14005KT 1SM BR SCT005
      TEMPO 2808/2812 1/4SM FG VV005
     FM281400 19005KT P6SM BKN025
     FM281700 20005KT P6SM SCT035=

USA.gov is the U.S. government's official web portal to all federal, state and local government web resources and services.